sensor_id;sensor_type;location;lat;lon;timestamp;P1;P2;P0
46885;PMS5003;32622;48.202;11.326;2023-12-20T00:00:21;4;4;
46885;PMS5003;32622;48.202;11.326;2023-12-20T00:02:23;4;4;
46885;PMS5003;32622;48.202;11.326;2023-12-20T00:04:25;4;4;
46885;PMS5003;32622;48.202;11.326;2023-12-20T00:06:27;3;3;
46885;PMS5003;32622;48.202;11.326;2023-12-20T00:08:29;3;3;
46885;PMS5003;32622;48.202;11.326;2023-12-20T00:10:31;3;3;
46885;PMS5003;32622;48.202;11.326;2023-12-20T00:12:33;3;3;
46885;PMS5003;32622;48.202;11.326;2023-12-20T00:14:35;4;4;
46885;PMS5003;32622;48.202;11.326;2023-12-20T00:16:37;4;4;
46885;PMS5003;32622;48.202;11.326;2023-12-20T00:18:39;5;4;
46885;PMS5003;32622;48.202;11.326;2023-12-20T00:20:41;5;4;
46885;PMS5003;32622;48.202;11.326;2023-12-20T00:22:44;5;4;
46885;PMS5003;32622;48.202;11.326;2023-12-20T00:24:46;4;3;
46885;PMS5003;32622;48.202;11.326;2023-12-20T00:26:48;4;3;
46885;PMS5003;32622;48.202;11.326;2023-12-20T00:28:50;4;3;
46885;PMS5003;32622;48.202;11.326;2023-12-20T00:30:52;4;3;
46885;PMS5003;32622;48.202;11.326;2023-12-20T00:32:55;4;3;
46885;PMS5003;32622;48.202;11.326;2023-12-20T00:34:57;4;3;
46885;PMS5003;32622;48.202;11.326;2023-12-20T00:36:59;4;3;
46885;PMS5003;32622;48.202;11.326;2023-12-20T00:39:02;4;3;
46885;PMS5003;32622;48.202;11.326;2023-12-20T00:41:04;4;3;
46885;PMS5003;32622;48.202;11.326;2023-12-20T00:43:06;4;3;
46885;PMS5003;32622;48.202;11.326;2023-12-20T00:45:08;4;3;
46885;PMS5003;32622;48.202;11.326;2023-12-20T00:47:11;4;3;
46885;PMS5003;32622;48.202;11.326;2023-12-20T00:49:13;4;3;
46885;PMS5003;32622;48.202;11.326;2023-12-20T00:51:15;4;3;
46885;PMS5003;32622;48.202;11.326;2023-12-20T00:53:17;4;3;
46885;PMS5003;32622;48.202;11.326;2023-12-20T00:55:19;4;3;
46885;PMS5003;32622;48.202;11.326;2023-12-20T00:57:21;4;3;
46885;PMS5003;32622;48.202;11.326;2023-12-20T00:59:23;4;3;
46885;PMS5003;32622;48.202;11.326;2023-12-20T01:01:25;5;4;
46885;PMS5003;32622;48.202;11.326;2023-12-20T01:03:27;5;4;
46885;PMS5003;32622;48.202;11.326;2023-12-20T01:05:30;5;4;
46885;PMS5003;32622;48.202;11.326;2023-12-20T01:07:32;5;4;
46885;PMS5003;32622;48.202;11.326;2023-12-20T01:09:35;5;4;
46885;PMS5003;32622;48.202;11.326;2023-12-20T01:11:37;4;3;
46885;PMS5003;32622;48.202;11.326;2023-12-20T01:13:39;5;4;
46885;PMS5003;32622;48.202;11.326;2023-12-20T01:15:41;5;4;
46885;PMS5003;32622;48.202;11.326;2023-12-20T01:17:43;6;5;
46885;PMS5003;32622;48.202;11.326;2023-12-20T01:19:45;5;5;
46885;PMS5003;32622;48.202;11.326;2023-12-20T01:21:47;5;5;
46885;PMS5003;32622;48.202;11.326;2023-12-20T01:23:49;5;5;
46885;PMS5003;32622;48.202;11.326;2023-12-20T01:25:51;5;5;
46885;PMS5003;32622;48.202;11.326;2023-12-20T01:27:53;5;5;
46885;PMS5003;32622;48.202;11.326;2023-12-20T01:29:56;5;5;
46885;PMS5003;32622;48.202;11.326;2023-12-20T01:31:58;6;6;
46885;PMS5003;32622;48.202;11.326;2023-12-20T01:34:00;6;6;
46885;PMS5003;32622;48.202;11.326;2023-12-20T01:36:03;6;6;
46885;PMS5003;32622;48.202;11.326;2023-12-20T01:38:05;6;6;
46885;PMS5003;32622;48.202;11.326;2023-12-20T01:40:08;6;6;
46885;PMS5003;32622;48.202;11.326;2023-12-20T01:42:10;6;6;
46885;PMS5003;32622;48.202;11.326;2023-12-20T01:44:13;6;6;
46885;PMS5003;32622;48.202;11.326;2023-12-20T01:46:15;6;6;
46885;PMS5003;32622;48.202;11.326;2023-12-20T01:48:18;6;6;
46885;PMS5003;32622;48.202;11.326;2023-12-20T01:50:22;6;6;
46885;PMS5003;32622;48.202;11.326;2023-12-20T01:52:24;6;6;
46885;PMS5003;32622;48.202;11.326;2023-12-20T01:54:28;6;6;
46885;PMS5003;32622;48.202;11.326;2023-12-20T01:56:30;6;6;
46885;PMS5003;32622;48.202;11.326;2023-12-20T01:58:33;6;6;
46885;PMS5003;32622;48.202;11.326;2023-12-20T02:00:38;6;6;
46885;PMS5003;32622;48.202;11.326;2023-12-20T02:02:41;6;6;
46885;PMS5003;32622;48.202;11.326;2023-12-20T02:04:44;6;6;
46885;PMS5003;32622;48.202;11.326;2023-12-20T02:06:46;6;6;
46885;PMS5003;32622;48.202;11.326;2023-12-20T02:08:49;7;7;
46885;PMS5003;32622;48.202;11.326;2023-12-20T02:10:51;7;7;
46885;PMS5003;32622;48.202;11.326;2023-12-20T02:12:54;7;7;
46885;PMS5003;32622;48.202;11.326;2023-12-20T02:14:56;7;7;
46885;PMS5003;32622;48.202;11.326;2023-12-20T02:16:59;7;7;
46885;PMS5003;32622;48.202;11.326;2023-12-20T02:19:01;7;7;
46885;PMS5003;32622;48.202;11.326;2023-12-20T02:21:05;6;6;
46885;PMS5003;32622;48.202;11.326;2023-12-20T02:23:07;6;6;
46885;PMS5003;32622;48.202;11.326;2023-12-20T02:25:09;6;6;
46885;PMS5003;32622;48.202;11.326;2023-12-20T02:27:11;7;7;
46885;PMS5003;32622;48.202;11.326;2023-12-20T02:29:14;7;7;
46885;PMS5003;32622;48.202;11.326;2023-12-20T02:31:16;7;7;
46885;PMS5003;32622;48.202;11.326;2023-12-20T02:33:18;6;6;
46885;PMS5003;32622;48.202;11.326;2023-12-20T02:35:20;6;6;
46885;PMS5003;32622;48.202;11.326;2023-12-20T02:37:22;6;6;
46885;PMS5003;32622;48.202;11.326;2023-12-20T02:39:24;6;6;
46885;PMS5003;32622;48.202;11.326;2023-12-20T02:41:26;6;6;
46885;PMS5003;32622;48.202;11.326;2023-12-20T02:43:28;6;6;
46885;PMS5003;32622;48.202;11.326;2023-12-20T02:45:30;6;6;
46885;PMS5003;32622;48.202;11.326;2023-12-20T02:47:33;6;6;
46885;PMS5003;32622;48.202;11.326;2023-12-20T02:49:35;6;6;
46885;PMS5003;32622;48.202;11.326;2023-12-20T02:51:37;7;7;
46885;PMS5003;32622;48.202;11.326;2023-12-20T02:53:39;7;7;
46885;PMS5003;32622;48.202;11.326;2023-12-20T02:55:41;7;7;
46885;PMS5003;32622;48.202;11.326;2023-12-20T02:57:43;6;6;
46885;PMS5003;32622;48.202;11.326;2023-12-20T02:59:45;6;6;
46885;PMS5003;32622;48.202;11.326;2023-12-20T03:01:47;6;6;
46885;PMS5003;32622;48.202;11.326;2023-12-20T03:03:49;5;5;
46885;PMS5003;32622;48.202;11.326;2023-12-20T03:05:51;5;5;
46885;PMS5003;32622;48.202;11.326;2023-12-20T03:07:54;5;5;
46885;PMS5003;32622;48.202;11.326;2023-12-20T03:09:56;6;5;
46885;PMS5003;32622;48.202;11.326;2023-12-20T03:11:58;6;5;
46885;PMS5003;32622;48.202;11.326;2023-12-20T03:14:00;6;5;
46885;PMS5003;32622;48.202;11.326;2023-12-20T03:16:07;5;4;
46885;PMS5003;32622;48.202;11.326;2023-12-20T03:18:10;5;4;
46885;PMS5003;32622;48.202;11.326;2023-12-20T03:20:12;5;4;
46885;PMS5003;32622;48.202;11.326;2023-12-20T03:22:14;5;4;
46885;PMS5003;32622;48.202;11.326;2023-12-20T03:24:16;5;4;
46885;PMS5003;32622;48.202;11.326;2023-12-20T03:26:18;5;4;
46885;PMS5003;32622;48.202;11.326;2023-12-20T03:28:20;4;3;
46885;PMS5003;32622;48.202;11.326;2023-12-20T03:30:22;4;3;
46885;PMS5003;32622;48.202;11.326;2023-12-20T03:32:25;4;3;
46885;PMS5003;32622;48.202;11.326;2023-12-20T03:34:27;7;3;
46885;PMS5003;32622;48.202;11.326;2023-12-20T03:36:29;7;3;
46885;PMS5003;32622;48.202;11.326;2023-12-20T03:38:31;7;3;
46885;PMS5003;32622;48.202;11.326;2023-12-20T03:40:33;8;4;
46885;PMS5003;32622;48.202;11.326;2023-12-20T03:42:35;8;4;
46885;PMS5003;32622;48.202;11.326;2023-12-20T03:44:38;8;4;
46885;PMS5003;32622;48.202;11.326;2023-12-20T03:46:40;7;4;
46885;PMS5003;32622;48.202;11.326;2023-12-20T03:48:42;7;4;
46885;PMS5003;32622;48.202;11.326;2023-12-20T03:50:44;7;4;
46885;PMS5003;32622;48.202;11.326;2023-12-20T03:52:46;7;4;
46885;PMS5003;32622;48.202;11.326;2023-12-20T03:54:48;7;4;
46885;PMS5003;32622;48.202;11.326;2023-12-20T03:56:50;7;4;
46885;PMS5003;32622;48.202;11.326;2023-12-20T03:58:52;8;4;
46885;PMS5003;32622;48.202;11.326;2023-12-20T04:00:55;8;4;
46885;PMS5003;32622;48.202;11.326;2023-12-20T04:02:57;8;4;
46885;PMS5003;32622;48.202;11.326;2023-12-20T04:04:59;8;5;
46885;PMS5003;32622;48.202;11.326;2023-12-20T04:07:01;8;5;
46885;PMS5003;32622;48.202;11.326;2023-12-20T04:09:03;8;5;
46885;PMS5003;32622;48.202;11.326;2023-12-20T04:11:05;7;5;
46885;PMS5003;32622;48.202;11.326;2023-12-20T04:13:08;7;5;
46885;PMS5003;32622;48.202;11.326;2023-12-20T04:15:10;7;5;
46885;PMS5003;32622;48.202;11.326;2023-12-20T04:17:12;7;5;
46885;PMS5003;32622;48.202;11.326;2023-12-20T04:19:14;7;5;
46885;PMS5003;32622;48.202;11.326;2023-12-20T04:21:16;7;5;
46885;PMS5003;32622;48.202;11.326;2023-12-20T04:23:18;7;5;
46885;PMS5003;32622;48.202;11.326;2023-12-20T04:25:20;7;5;
46885;PMS5003;32622;48.202;11.326;2023-12-20T04:27:23;7;5;
46885;PMS5003;32622;48.202;11.326;2023-12-20T04:29:25;8;6;
46885;PMS5003;32622;48.202;11.326;2023-12-20T04:31:27;8;6;
46885;PMS5003;32622;48.202;11.326;2023-12-20T04:33:29;8;6;
46885;PMS5003;32622;48.202;11.326;2023-12-20T04:35:31;6;6;
46885;PMS5003;32622;48.202;11.326;2023-12-20T04:37:33;6;6;
46885;PMS5003;32622;48.202;11.326;2023-12-20T04:39:35;6;6;
46885;PMS5003;32622;48.202;11.326;2023-12-20T04:41:37;7;7;
46885;PMS5003;32622;48.202;11.326;2023-12-20T04:43:39;7;7;
46885;PMS5003;32622;48.202;11.326;2023-12-20T04:45:41;7;7;
46885;PMS5003;32622;48.202;11.326;2023-12-20T04:47:44;7;7;
46885;PMS5003;32622;48.202;11.326;2023-12-20T04:49:46;7;7;
46885;PMS5003;32622;48.202;11.326;2023-12-20T04:51:48;7;7;
46885;PMS5003;32622;48.202;11.326;2023-12-20T04:53:50;6;6;
46885;PMS5003;32622;48.202;11.326;2023-12-20T04:55:52;6;6;
46885;PMS5003;32622;48.202;11.326;2023-12-20T04:57:54;6;6;
46885;PMS5003;32622;48.202;11.326;2023-12-20T04:59:56;6;6;
46885;PMS5003;32622;48.202;11.326;2023-12-20T05:01:59;6;6;
46885;PMS5003;32622;48.202;11.326;2023-12-20T05:04:01;6;6;
46885;PMS5003;32622;48.202;11.326;2023-12-20T05:06:03;6;6;
46885;PMS5003;32622;48.202;11.326;2023-12-20T05:08:06;6;6;
46885;PMS5003;32622;48.202;11.326;2023-12-20T05:10:08;6;6;
46885;PMS5003;32622;48.202;11.326;2023-12-20T05:12:10;6;6;
46885;PMS5003;32622;48.202;11.326;2023-12-20T05:14:12;6;6;
46885;PMS5003;32622;48.202;11.326;2023-12-20T05:16:15;6;6;
46885;PMS5003;32622;48.202;11.326;2023-12-20T05:18:17;7;6;
46885;PMS5003;32622;48.202;11.326;2023-12-20T05:20:19;7;6;
46885;PMS5003;32622;48.202;11.326;2023-12-20T05:22:21;7;6;
46885;PMS5003;32622;48.202;11.326;2023-12-20T05:24:23;7;6;
46885;PMS5003;32622;48.202;11.326;2023-12-20T05:26:25;7;6;
46885;PMS5003;32622;48.202;11.326;2023-12-20T05:28:27;7;6;
46885;PMS5003;32622;48.202;11.326;2023-12-20T05:30:29;8;6;
46885;PMS5003;32622;48.202;11.326;2023-12-20T05:32:31;8;6;
46885;PMS5003;32622;48.202;11.326;2023-12-20T05:34:33;8;6;
46885;PMS5003;32622;48.202;11.326;2023-12-20T05:36:36;9;5;
46885;PMS5003;32622;48.202;11.326;2023-12-20T05:38:38;9;5;
46885;PMS5003;32622;48.202;11.326;2023-12-20T05:40:40;9;5;
46885;PMS5003;32622;48.202;11.326;2023-12-20T05:42:43;9;5;
46885;PMS5003;32622;48.202;11.326;2023-12-20T05:44:45;9;5;
46885;PMS5003;32622;48.202;11.326;2023-12-20T05:46:47;9;5;
46885;PMS5003;32622;48.202;11.326;2023-12-20T05:48:49;9;5;
46885;PMS5003;32622;48.202;11.326;2023-12-20T05:50:51;9;5;
46885;PMS5003;32622;48.202;11.326;2023-12-20T05:52:53;9;5;
46885;PMS5003;32622;48.202;11.326;2023-12-20T05:54:56;10;6;
46885;PMS5003;32622;48.202;11.326;2023-12-20T05:56:58;10;6;
46885;PMS5003;32622;48.202;11.326;2023-12-20T05:59:00;10;6;
46885;PMS5003;32622;48.202;11.326;2023-12-20T06:01:03;10;7;
46885;PMS5003;32622;48.202;11.326;2023-12-20T06:03:06;10;7;
46885;PMS5003;32622;48.202;11.326;2023-12-20T06:05:08;10;7;
46885;PMS5003;32622;48.202;11.326;2023-12-20T06:07:11;10;6;
46885;PMS5003;32622;48.202;11.326;2023-12-20T06:09:14;10;6;
46885;PMS5003;32622;48.202;11.326;2023-12-20T06:11:16;10;6;
46885;PMS5003;32622;48.202;11.326;2023-12-20T06:13:18;11;7;
46885;PMS5003;32622;48.202;11.326;2023-12-20T06:15:20;11;7;
46885;PMS5003;32622;48.202;11.326;2023-12-20T06:17:22;11;7;
46885;PMS5003;32622;48.202;11.326;2023-12-20T06:19:24;10;7;
46885;PMS5003;32622;48.202;11.326;2023-12-20T06:21:26;10;7;
46885;PMS5003;32622;48.202;11.326;2023-12-20T06:23:28;10;7;
46885;PMS5003;32622;48.202;11.326;2023-12-20T06:25:31;9;7;
46885;PMS5003;32622;48.202;11.326;2023-12-20T06:27:33;8;6;
46885;PMS5003;32622;48.202;11.326;2023-12-20T06:29:35;8;6;
46885;PMS5003;32622;48.202;11.326;2023-12-20T06:31:37;8;7;
46885;PMS5003;32622;48.202;11.326;2023-12-20T06:33:39;9;8;
46885;PMS5003;32622;48.202;11.326;2023-12-20T06:35:41;9;8;
46885;PMS5003;32622;48.202;11.326;2023-12-20T06:37:43;8;8;
46885;PMS5003;32622;48.202;11.326;2023-12-20T06:39:45;8;8;
46885;PMS5003;32622;48.202;11.326;2023-12-20T06:41:47;8;8;
46885;PMS5003;32622;48.202;11.326;2023-12-20T06:43:49;8;8;
46885;PMS5003;32622;48.202;11.326;2023-12-20T06:45:51;8;8;
46885;PMS5003;32622;48.202;11.326;2023-12-20T06:47:54;8;8;
46885;PMS5003;32622;48.202;11.326;2023-12-20T06:49:56;9;9;
46885;PMS5003;32622;48.202;11.326;2023-12-20T06:51:58;9;9;
46885;PMS5003;32622;48.202;11.326;2023-12-20T06:54:00;9;9;
46885;PMS5003;32622;48.202;11.326;2023-12-20T06:56:03;7;7;
46885;PMS5003;32622;48.202;11.326;2023-12-20T06:58:05;7;7;
46885;PMS5003;32622;48.202;11.326;2023-12-20T07:00:07;7;7;
46885;PMS5003;32622;48.202;11.326;2023-12-20T07:02:12;7;7;
46885;PMS5003;32622;48.202;11.326;2023-12-20T07:04:15;7;7;
46885;PMS5003;32622;48.202;11.326;2023-12-20T07:06:17;7;7;
46885;PMS5003;32622;48.202;11.326;2023-12-20T07:08:19;8;8;
46885;PMS5003;32622;48.202;11.326;2023-12-20T07:10:21;7;7;
46885;PMS5003;32622;48.202;11.326;2023-12-20T07:12:24;7;7;
46885;PMS5003;32622;48.202;11.326;2023-12-20T07:14:26;7;7;
46885;PMS5003;32622;48.202;11.326;2023-12-20T07:16:28;8;8;
46885;PMS5003;32622;48.202;11.326;2023-12-20T07:18:30;8;8;
46885;PMS5003;32622;48.202;11.326;2023-12-20T07:20:32;8;8;
46885;PMS5003;32622;48.202;11.326;2023-12-20T07:22:34;8;8;
46885;PMS5003;32622;48.202;11.326;2023-12-20T07:24:36;8;8;
46885;PMS5003;32622;48.202;11.326;2023-12-20T07:26:38;9;9;
46885;PMS5003;32622;48.202;11.326;2023-12-20T07:28:40;9;9;
46885;PMS5003;32622;48.202;11.326;2023-12-20T07:30:43;9;9;
46885;PMS5003;32622;48.202;11.326;2023-12-20T07:32:45;8;8;
46885;PMS5003;32622;48.202;11.326;2023-12-20T07:34:47;8;8;
46885;PMS5003;32622;48.202;11.326;2023-12-20T07:36:49;8;8;
46885;PMS5003;32622;48.202;11.326;2023-12-20T07:38:51;8;8;
46885;PMS5003;32622;48.202;11.326;2023-12-20T07:40:53;8;8;
46885;PMS5003;32622;48.202;11.326;2023-12-20T07:42:55;8;8;
46885;PMS5003;32622;48.202;11.326;2023-12-20T07:44:58;7;7;
46885;PMS5003;32622;48.202;11.326;2023-12-20T07:47:00;7;7;
46885;PMS5003;32622;48.202;11.326;2023-12-20T07:49:02;7;7;
46885;PMS5003;32622;48.202;11.326;2023-12-20T07:51:04;6;6;
46885;PMS5003;32622;48.202;11.326;2023-12-20T07:53:07;6;6;
46885;PMS5003;32622;48.202;11.326;2023-12-20T07:55:09;6;6;
46885;PMS5003;32622;48.202;11.326;2023-12-20T07:57:11;6;6;
46885;PMS5003;32622;48.202;11.326;2023-12-20T07:59:13;6;6;
46885;PMS5003;32622;48.202;11.326;2023-12-20T08:01:16;6;6;
46885;PMS5003;32622;48.202;11.326;2023-12-20T08:03:18;7;7;
46885;PMS5003;32622;48.202;11.326;2023-12-20T08:05:20;7;7;
46885;PMS5003;32622;48.202;11.326;2023-12-20T08:07:22;7;7;
46885;PMS5003;32622;48.202;11.326;2023-12-20T08:09:24;5;5;
46885;PMS5003;32622;48.202;11.326;2023-12-20T08:11:26;5;5;
46885;PMS5003;32622;48.202;11.326;2023-12-20T08:13:29;5;5;
46885;PMS5003;32622;48.202;11.326;2023-12-20T08:15:31;6;6;
46885;PMS5003;32622;48.202;11.326;2023-12-20T08:17:33;7;7;
46885;PMS5003;32622;48.202;11.326;2023-12-20T08:19:35;7;7;
46885;PMS5003;32622;48.202;11.326;2023-12-20T08:21:37;6;6;
46885;PMS5003;32622;48.202;11.326;2023-12-20T08:23:39;7;7;
46885;PMS5003;32622;48.202;11.326;2023-12-20T08:25:41;7;7;
46885;PMS5003;32622;48.202;11.326;2023-12-20T08:27:44;7;7;
46885;PMS5003;32622;48.202;11.326;2023-12-20T08:29:46;9;7;
46885;PMS5003;32622;48.202;11.326;2023-12-20T08:31:51;8;7;
46885;PMS5003;32622;48.202;11.326;2023-12-20T08:33:54;10;8;
46885;PMS5003;32622;48.202;11.326;2023-12-20T08:35:56;10;8;
46885;PMS5003;32622;48.202;11.326;2023-12-20T08:37:59;11;8;
46885;PMS5003;32622;48.202;11.326;2023-12-20T08:40:01;12;9;
46885;PMS5003;32622;48.202;11.326;2023-12-20T08:42:03;12;9;
46885;PMS5003;32622;48.202;11.326;2023-12-20T08:44:06;12;9;
46885;PMS5003;32622;48.202;11.326;2023-12-20T08:46:08;12;9;
46885;PMS5003;32622;48.202;11.326;2023-12-20T08:48:10;12;9;
46885;PMS5003;32622;48.202;11.326;2023-12-20T08:50:12;12;9;
46885;PMS5003;32622;48.202;11.326;2023-12-20T08:52:14;13;10;
46885;PMS5003;32622;48.202;11.326;2023-12-20T08:54:17;13;10;
46885;PMS5003;32622;48.202;11.326;2023-12-20T08:56:19;13;10;
46885;PMS5003;32622;48.202;11.326;2023-12-20T08:58:21;12;9;
46885;PMS5003;32622;48.202;11.326;2023-12-20T09:00:23;12;9;
46885;PMS5003;32622;48.202;11.326;2023-12-20T09:02:26;12;9;
46885;PMS5003;32622;48.202;11.326;2023-12-20T09:04:28;13;9;
46885;PMS5003;32622;48.202;11.326;2023-12-20T09:06:30;13;9;
46885;PMS5003;32622;48.202;11.326;2023-12-20T09:08:32;13;9;
46885;PMS5003;32622;48.202;11.326;2023-12-20T09:10:34;11;10;
46885;PMS5003;32622;48.202;11.326;2023-12-20T09:12:36;11;10;
46885;PMS5003;32622;48.202;11.326;2023-12-20T09:14:38;11;10;
46885;PMS5003;32622;48.202;11.326;2023-12-20T09:16:41;13;11;
46885;PMS5003;32622;48.202;11.326;2023-12-20T09:18:43;13;11;
46885;PMS5003;32622;48.202;11.326;2023-12-20T09:20:45;13;11;
46885;PMS5003;32622;48.202;11.326;2023-12-20T09:22:47;13;10;
46885;PMS5003;32622;48.202;11.326;2023-12-20T09:24:49;13;10;
46885;PMS5003;32622;48.202;11.326;2023-12-20T09:26:51;13;10;
46885;PMS5003;32622;48.202;11.326;2023-12-20T09:28:54;12;9;
46885;PMS5003;32622;48.202;11.326;2023-12-20T09:30:56;12;9;
46885;PMS5003;32622;48.202;11.326;2023-12-20T09:32:58;12;9;
46885;PMS5003;32622;48.202;11.326;2023-12-20T09:35:00;10;9;
46885;PMS5003;32622;48.202;11.326;2023-12-20T09:37:03;10;9;
46885;PMS5003;32622;48.202;11.326;2023-12-20T09:39:05;10;9;
46885;PMS5003;32622;48.202;11.326;2023-12-20T09:41:07;9;8;
46885;PMS5003;32622;48.202;11.326;2023-12-20T09:43:10;9;8;
46885;PMS5003;32622;48.202;11.326;2023-12-20T09:45:15;9;8;
46885;PMS5003;32622;48.202;11.326;2023-12-20T09:47:22;10;9;
46885;PMS5003;32622;48.202;11.326;2023-12-20T09:49:25;10;9;
46885;PMS5003;32622;48.202;11.326;2023-12-20T09:51:29;10;9;
46885;PMS5003;32622;48.202;11.326;2023-12-20T09:53:32;9;8;
46885;PMS5003;32622;48.202;11.326;2023-12-20T09:55:38;9;8;
46885;PMS5003;32622;48.202;11.326;2023-12-20T09:57:42;9;8;
46885;PMS5003;32622;48.202;11.326;2023-12-20T09:59:44;11;9;
46885;PMS5003;32622;48.202;11.326;2023-12-20T10:01:47;11;9;
46885;PMS5003;32622;48.202;11.326;2023-12-20T10:03:50;11;9;
46885;PMS5003;32622;48.202;11.326;2023-12-20T10:05:56;13;9;
46885;PMS5003;32622;48.202;11.326;2023-12-20T10:07:59;13;9;
46885;PMS5003;32622;48.202;11.326;2023-12-20T10:10:03;13;9;
46885;PMS5003;32622;48.202;11.326;2023-12-20T10:12:06;12;9;
46885;PMS5003;32622;48.202;11.326;2023-12-20T10:14:10;12;9;
46885;PMS5003;32622;48.202;11.326;2023-12-20T10:16:12;12;9;
46885;PMS5003;32622;48.202;11.326;2023-12-20T10:18:14;10;8;
46885;PMS5003;32622;48.202;11.326;2023-12-20T10:20:17;10;8;
46885;PMS5003;32622;48.202;11.326;2023-12-20T10:22:19;10;8;
46885;PMS5003;32622;48.202;11.326;2023-12-20T10:24:21;10;8;
46885;PMS5003;32622;48.202;11.326;2023-12-20T10:26:23;9;7;
46885;PMS5003;32622;48.202;11.326;2023-12-20T10:28:27;9;7;
46885;PMS5003;32622;48.202;11.326;2023-12-20T10:30:35;10;6;
46885;PMS5003;32622;48.202;11.326;2023-12-20T10:32:37;11;7;
46885;PMS5003;32622;48.202;11.326;2023-12-20T10:34:39;11;7;
46885;PMS5003;32622;48.202;11.326;2023-12-20T10:36:41;11;7;
46885;PMS5003;32622;48.202;11.326;2023-12-20T10:38:43;11;7;
46885;PMS5003;32622;48.202;11.326;2023-12-20T10:40:46;11;7;
46885;PMS5003;32622;48.202;11.326;2023-12-20T10:42:49;11;7;
46885;PMS5003;32622;48.202;11.326;2023-12-20T10:44:52;11;7;
46885;PMS5003;32622;48.202;11.326;2023-12-20T10:46:55;11;7;
46885;PMS5003;32622;48.202;11.326;2023-12-20T10:48:58;11;7;
46885;PMS5003;32622;48.202;11.326;2023-12-20T10:51:04;11;7;
46885;PMS5003;32622;48.202;11.326;2023-12-20T10:53:07;10;6;
46885;PMS5003;32622;48.202;11.326;2023-12-20T10:55:09;9;5;
46885;PMS5003;32622;48.202;11.326;2023-12-20T10:57:12;9;5;
46885;PMS5003;32622;48.202;11.326;2023-12-20T10:59:15;9;5;
46885;PMS5003;32622;48.202;11.326;2023-12-20T11:01:19;9;6;
46885;PMS5003;32622;48.202;11.326;2023-12-20T11:03:22;9;6;
46885;PMS5003;32622;48.202;11.326;2023-12-20T11:05:28;9;6;
46885;PMS5003;32622;48.202;11.326;2023-12-20T11:07:35;7;6;
46885;PMS5003;32622;48.202;11.326;2023-12-20T11:09:43;7;6;
46885;PMS5003;32622;48.202;11.326;2023-12-20T11:11:59;7;6;
46885;PMS5003;32622;48.202;11.326;2023-12-20T11:14:12;8;6;
46885;PMS5003;32622;48.202;11.326;2023-12-20T11:16:18;8;6;
46885;PMS5003;32622;48.202;11.326;2023-12-20T11:18:21;8;6;
46885;PMS5003;32622;48.202;11.326;2023-12-20T11:20:35;8;7;
46885;PMS5003;32622;48.202;11.326;2023-12-20T11:22:38;8;7;
46885;PMS5003;32622;48.202;11.326;2023-12-20T11:24:53;8;7;
46885;PMS5003;32622;48.202;11.326;2023-12-20T11:26:56;8;6;
46885;PMS5003;32622;48.202;11.326;2023-12-20T11:29:22;8;6;
46885;PMS5003;32622;48.202;11.326;2023-12-20T11:31:35;8;6;
46885;PMS5003;32622;48.202;11.326;2023-12-20T11:33:41;6;6;
46885;PMS5003;32622;48.202;11.326;2023-12-20T11:35:45;6;6;
46885;PMS5003;32622;48.202;11.326;2023-12-20T11:37:47;6;6;
46885;PMS5003;32622;48.202;11.326;2023-12-20T11:39:54;6;5;
46885;PMS5003;32622;48.202;11.326;2023-12-20T11:41:56;6;5;
46885;PMS5003;32622;48.202;11.326;2023-12-20T11:44:05;6;5;
46885;PMS5003;32622;48.202;11.326;2023-12-20T11:46:08;5;4;
46885;PMS5003;32622;48.202;11.326;2023-12-20T11:48:11;5;4;
46885;PMS5003;32622;48.202;11.326;2023-12-20T11:50:15;5;4;
46885;PMS5003;32622;48.202;11.326;2023-12-20T11:52:17;4;4;
46885;PMS5003;32622;48.202;11.326;2023-12-20T11:54:19;4;4;
46885;PMS5003;32622;48.202;11.326;2023-12-20T11:56:21;4;4;
46885;PMS5003;32622;48.202;11.326;2023-12-20T11:58:23;3;3;
46885;PMS5003;32622;48.202;11.326;2023-12-20T12:00:26;3;3;
46885;PMS5003;32622;48.202;11.326;2023-12-20T12:02:29;3;3;
46885;PMS5003;32622;48.202;11.326;2023-12-20T12:04:31;2;2;
46885;PMS5003;32622;48.202;11.326;2023-12-20T12:06:34;3;3;
46885;PMS5003;32622;48.202;11.326;2023-12-20T12:08:36;3;3;
46885;PMS5003;32622;48.202;11.326;2023-12-20T12:10:38;3;3;
46885;PMS5003;32622;48.202;11.326;2023-12-20T12:12:40;3;3;
46885;PMS5003;32622;48.202;11.326;2023-12-20T12:14:42;3;3;
46885;PMS5003;32622;48.202;11.326;2023-12-20T12:16:46;3;3;
46885;PMS5003;32622;48.202;11.326;2023-12-20T12:18:54;3;3;
46885;PMS5003;32622;48.202;11.326;2023-12-20T12:21:01;2;2;
46885;PMS5003;32622;48.202;11.326;2023-12-20T12:23:03;2;2;
46885;PMS5003;32622;48.202;11.326;2023-12-20T12:25:10;2;2;
46885;PMS5003;32622;48.202;11.326;2023-12-20T12:27:13;3;3;
46885;PMS5003;32622;48.202;11.326;2023-12-20T12:29:15;3;3;
46885;PMS5003;32622;48.202;11.326;2023-12-20T12:31:17;3;3;
46885;PMS5003;32622;48.202;11.326;2023-12-20T12:33:19;3;3;
46885;PMS5003;32622;48.202;11.326;2023-12-20T12:35:22;2;2;
46885;PMS5003;32622;48.202;11.326;2023-12-20T12:37:24;2;2;
46885;PMS5003;32622;48.202;11.326;2023-12-20T12:39:26;2;2;
46885;PMS5003;32622;48.202;11.326;2023-12-20T12:41:28;2;2;
46885;PMS5003;32622;48.202;11.326;2023-12-20T12:43:31;2;2;
46885;PMS5003;32622;48.202;11.326;2023-12-20T12:45:33;2;2;
46885;PMS5003;32622;48.202;11.326;2023-12-20T12:47:35;2;2;
46885;PMS5003;32622;48.202;11.326;2023-12-20T12:49:37;3;3;
46885;PMS5003;32622;48.202;11.326;2023-12-20T12:51:41;3;3;
46885;PMS5003;32622;48.202;11.326;2023-12-20T12:53:43;3;3;
46885;PMS5003;32622;48.202;11.326;2023-12-20T12:55:46;2;2;
46885;PMS5003;32622;48.202;11.326;2023-12-20T12:57:48;2;2;
46885;PMS5003;32622;48.202;11.326;2023-12-20T12:59:50;2;2;
46885;PMS5003;32622;48.202;11.326;2023-12-20T13:01:52;3;3;
46885;PMS5003;32622;48.202;11.326;2023-12-20T13:03:54;3;3;
46885;PMS5003;32622;48.202;11.326;2023-12-20T13:05:56;3;3;
46885;PMS5003;32622;48.202;11.326;2023-12-20T13:07:59;3;3;
46885;PMS5003;32622;48.202;11.326;2023-12-20T13:10:01;2;2;
46885;PMS5003;32622;48.202;11.326;2023-12-20T13:12:04;1;1;
46885;PMS5003;32622;48.202;11.326;2023-12-20T13:14:06;1;1;
46885;PMS5003;32622;48.202;11.326;2023-12-20T13:16:09;1;1;
46885;PMS5003;32622;48.202;11.326;2023-12-20T13:18:11;2;2;
46885;PMS5003;32622;48.202;11.326;2023-12-20T13:20:13;2;2;
46885;PMS5003;32622;48.202;11.326;2023-12-20T13:22:15;2;2;
46885;PMS5003;32622;48.202;11.326;2023-12-20T13:24:17;2;2;
46885;PMS5003;32622;48.202;11.326;2023-12-20T13:26:19;2;2;
46885;PMS5003;32622;48.202;11.326;2023-12-20T13:28:21;2;2;
46885;PMS5003;32622;48.202;11.326;2023-12-20T13:30:23;2;2;
46885;PMS5003;32622;48.202;11.326;2023-12-20T13:32:26;2;2;
46885;PMS5003;32622;48.202;11.326;2023-12-20T13:34:28;2;2;
46885;PMS5003;32622;48.202;11.326;2023-12-20T13:36:30;2;2;
46885;PMS5003;32622;48.202;11.326;2023-12-20T13:38:32;3;3;
46885;PMS5003;32622;48.202;11.326;2023-12-20T13:40:34;3;3;
46885;PMS5003;32622;48.202;11.326;2023-12-20T13:42:36;4;3;
46885;PMS5003;32622;48.202;11.326;2023-12-20T13:44:38;3;2;